createdAt,value
2019-05-14T00:01:02.838Z,1.63
2019-05-14T00:03:31.120Z,1.10
2019-05-14T00:06:02.030Z,1.23
2019-05-14T00:08:31.398Z,0.90
2019-05-14T00:11:01.434Z,0.80
2019-05-14T00:13:31.877Z,1.23
2019-05-14T00:16:21.691Z,1.20
2019-05-14T00:18:51.037Z,0.90
2019-05-14T00:21:21.017Z,0.93
2019-05-14T00:23:51.228Z,0.83
2019-05-14T00:26:21.338Z,1.00
2019-05-14T00:28:51.070Z,0.70
2019-05-14T00:31:21.195Z,2.03
2019-05-14T00:33:51.105Z,0.90
2019-05-14T00:36:21.364Z,1.00
2019-05-14T00:38:51.190Z,1.77
2019-05-14T00:41:21.286Z,0.97
2019-05-14T00:43:51.200Z,1.00
2019-05-14T00:46:21.209Z,0.80
2019-05-14T00:48:51.236Z,1.00
2019-05-14T00:51:21.371Z,1.07
2019-05-14T00:53:51.386Z,0.90
2019-05-14T00:56:21.445Z,1.23
2019-05-14T00:58:49.185Z,1.23
2019-05-14T01:01:17.458Z,0.97
2019-05-14T01:03:45.760Z,1.40
2019-05-14T01:06:14.031Z,0.93
2019-05-14T01:08:42.303Z,1.07
2019-05-14T01:11:11.820Z,1.30
2019-05-14T01:13:41.713Z,0.80
2019-05-14T01:16:12.013Z,1.10
2019-05-14T01:18:41.485Z,1.00
2019-05-14T01:21:11.735Z,1.47
2019-05-14T01:23:41.500Z,1.37
2019-05-14T01:26:11.529Z,0.90
2019-05-14T01:28:41.497Z,1.13
2019-05-14T01:31:11.386Z,1.23
2019-05-14T01:33:41.083Z,1.00
2019-05-14T01:36:09.612Z,1.27
2019-05-14T01:38:37.887Z,0.90
2019-05-14T01:41:06.159Z,0.87
2019-05-14T01:43:34.452Z,1.10
2019-05-14T01:46:02.793Z,0.80
2019-05-14T01:48:31.389Z,0.80
2019-05-14T01:51:01.488Z,1.00
2019-05-14T01:53:31.244Z,0.90
2019-05-14T01:56:01.616Z,0.80
2019-05-14T01:58:31.143Z,0.80
2019-05-14T02:01:02.041Z,1.00
2019-05-14T02:03:32.043Z,0.70
2019-05-14T02:06:01.410Z,1.00
2019-05-14T02:08:31.965Z,0.80
2019-05-14T02:11:01.660Z,0.93
2019-05-14T02:13:31.930Z,0.90
2019-05-14T02:16:01.405Z,0.90
2019-05-14T02:18:31.161Z,1.53
2019-05-14T02:21:01.611Z,1.30
2019-05-14T02:23:31.748Z,1.00
2019-05-14T02:25:59.614Z,1.10
2019-05-14T02:28:27.880Z,1.20
2019-05-14T02:30:59.036Z,1.00
2019-05-14T02:33:26.242Z,0.80
2019-05-14T02:35:54.530Z,1.13
2019-05-14T02:38:22.876Z,1.27
2019-05-14T02:40:51.178Z,0.97
2019-05-14T02:43:20.240Z,1.57
2019-05-14T02:46:04.615Z,0.83
2019-05-14T02:48:20.068Z,1.00
2019-05-14T02:50:49.657Z,1.00
2019-05-14T02:53:19.762Z,1.13
2019-05-14T02:55:49.841Z,0.90
2019-05-14T02:58:20.638Z,1.00
2019-05-14T03:00:49.136Z,0.80
2019-05-14T03:03:19.242Z,0.73
2019-05-14T03:05:49.538Z,0.80
2019-05-14T03:08:19.818Z,0.93
2019-05-14T03:10:50.282Z,1.00
2019-05-14T03:13:20.235Z,1.10
2019-05-14T03:15:49.800Z,0.80
2019-05-14T03:18:19.881Z,1.03
2019-05-14T03:20:50.223Z,1.50
2019-05-14T03:23:22.400Z,1.40
2019-05-14T03:25:49.264Z,1.10
2019-05-14T03:28:19.857Z,1.10
2019-05-14T03:30:52.345Z,0.90
2019-05-14T03:33:22.189Z,0.90
2019-05-14T03:35:51.950Z,1.33
2019-05-14T03:38:19.719Z,1.07
2019-05-14T03:40:49.409Z,0.93
2019-05-14T03:43:19.935Z,0.90
2019-05-14T03:45:49.575Z,1.30
2019-05-14T03:48:19.045Z,0.97
2019-05-14T03:50:49.602Z,1.17
2019-05-14T03:53:18.954Z,0.90
2019-05-14T03:55:49.972Z,0.83
2019-05-14T03:58:21.078Z,0.70
2019-05-14T04:00:50.966Z,0.70
2019-05-14T04:03:19.958Z,0.83
2019-05-14T04:05:49.762Z,0.80
2019-05-14T04:08:21.466Z,1.50
2019-05-14T04:10:53.680Z,1.10
2019-05-14T04:13:19.950Z,1.00
2019-05-14T04:15:49.760Z,1.10
2019-05-14T04:18:18.661Z,1.33
2019-05-14T04:20:49.919Z,0.97
2019-05-14T04:23:19.846Z,1.00
2019-05-14T04:25:49.857Z,1.20
2019-05-14T04:28:19.438Z,1.73
2019-05-14T04:30:49.333Z,1.00
2019-05-14T04:33:18.912Z,1.00
2019-05-14T04:35:49.043Z,1.13
2019-05-14T04:38:20.197Z,1.13
2019-05-14T04:40:49.385Z,1.13
2019-05-14T04:43:19.255Z,0.80
2019-05-14T04:45:49.629Z,1.53
2019-05-14T04:48:31.001Z,1.33
2019-05-14T04:50:49.882Z,1.20
2019-05-14T04:53:19.587Z,1.30
2019-05-14T04:55:49.487Z,1.10
2019-05-14T04:58:21.671Z,2.17
2019-05-14T05:00:49.987Z,1.10
2019-05-14T05:03:20.087Z,1.10
2019-05-14T05:05:49.973Z,1.50
2019-05-14T05:08:19.957Z,4.23
2019-05-14T05:10:49.471Z,1.70
2019-05-14T05:13:18.541Z,1.40
2019-05-14T05:15:48.636Z,1.50
2019-05-14T05:18:18.586Z,1.53
2019-05-14T05:20:50.241Z,2.30
2019-05-14T05:23:18.929Z,1.57
2019-05-14T05:25:49.074Z,2.07
2019-05-14T05:28:19.075Z,1.73
2019-05-14T05:30:49.091Z,1.57
2019-05-14T05:33:18.783Z,2.17
2019-05-14T05:35:48.609Z,1.80
2019-05-14T05:38:18.397Z,2.67
2019-05-14T05:40:48.566Z,2.43
2019-05-14T05:43:19.021Z,2.87
2019-05-14T05:45:48.577Z,2.57
2019-05-14T05:48:18.795Z,1.73
2019-05-14T05:50:48.496Z,2.23
2019-05-14T05:53:19.252Z,1.50
2019-05-14T05:55:48.506Z,1.77
2019-05-14T05:58:19.532Z,1.67
2019-05-14T06:00:49.515Z,2.80
2019-05-14T06:03:20.601Z,2.23
2019-05-14T06:05:49.074Z,3.07
2019-05-14T06:08:18.843Z,2.67
2019-05-14T06:10:48.949Z,3.40
2019-05-14T06:13:18.255Z,1.80
2019-05-14T06:15:49.432Z,3.83
2019-05-14T06:18:21.076Z,2.00
2019-05-14T06:20:49.175Z,2.60
2019-05-14T06:23:18.857Z,1.50
2019-05-14T06:25:49.142Z,1.43
2019-05-14T06:28:20.548Z,2.90
2019-05-14T06:30:48.406Z,2.03
2019-05-14T06:33:19.419Z,3.50
2019-05-14T06:35:48.620Z,2.87
2019-05-14T06:38:18.525Z,1.90
2019-05-14T06:40:48.943Z,2.10
2019-05-14T06:43:19.021Z,3.63
2019-05-14T06:45:49.488Z,2.13
2019-05-14T06:48:29.790Z,2.37
2019-05-14T06:50:47.096Z,1.77
2019-05-14T06:53:15.459Z,3.13
2019-05-14T06:55:43.733Z,1.67
2019-05-14T06:58:12.013Z,1.83
2019-05-14T07:00:40.289Z,2.63
2019-05-14T07:03:09.022Z,1.50
2019-05-14T07:05:38.960Z,1.77
2019-05-14T07:08:08.966Z,1.60
2019-05-14T07:10:39.499Z,2.00
2019-05-14T07:13:08.621Z,2.20
2019-05-14T07:15:38.661Z,1.60
2019-05-14T07:18:08.638Z,1.67
2019-05-14T07:20:39.258Z,2.70
2019-05-14T07:23:08.214Z,1.37
2019-05-14T07:25:39.115Z,1.60
2019-05-14T07:28:08.772Z,1.40
2019-05-14T07:30:39.357Z,2.03
2019-05-14T07:33:09.252Z,1.83
2019-05-14T07:35:38.216Z,1.40
2019-05-14T07:38:08.991Z,1.40
2019-05-14T07:40:38.949Z,1.50
2019-05-14T07:43:08.828Z,2.00
2019-05-14T07:45:38.549Z,1.93
2019-05-14T07:48:09.203Z,1.60
2019-05-14T07:50:39.450Z,2.60
2019-05-14T07:53:08.578Z,1.47
2019-05-14T07:55:38.508Z,1.47
2019-05-14T07:58:08.372Z,1.47
2019-05-14T08:00:36.909Z,1.53
2019-05-14T08:03:05.188Z,1.63
2019-05-14T08:05:33.478Z,1.40
2019-05-14T08:08:01.757Z,2.50
2019-05-14T08:10:30.163Z,3.13
2019-05-14T08:12:58.878Z,1.50
2019-05-14T08:15:27.988Z,1.47
2019-05-14T08:17:58.488Z,1.47
2019-05-14T08:20:28.538Z,1.23
2019-05-14T08:22:58.216Z,1.60
2019-05-14T08:25:28.260Z,1.33
2019-05-14T08:27:58.680Z,1.17
2019-05-14T08:30:28.318Z,1.20
2019-05-14T08:32:58.297Z,1.30
2019-05-14T08:35:28.920Z,1.40
2019-05-14T08:38:07.250Z,1.23
2019-05-14T08:40:28.586Z,1.47
2019-05-14T08:42:58.363Z,1.70
2019-05-14T08:45:28.361Z,1.70
2019-05-14T08:47:58.647Z,1.77
2019-05-14T08:50:28.080Z,1.20
2019-05-14T08:52:58.260Z,2.60
2019-05-14T08:55:26.656Z,1.70
2019-05-14T08:57:55.066Z,1.13
2019-05-14T09:00:23.467Z,1.43
2019-05-14T09:02:51.743Z,1.60
2019-05-14T09:05:20.121Z,1.63
2019-05-14T09:07:49.079Z,1.10
2019-05-14T09:10:19.279Z,1.10
2019-05-14T09:12:49.155Z,1.40
2019-05-14T09:15:18.576Z,1.43
2019-05-14T09:17:48.547Z,1.40
2019-05-14T09:20:18.708Z,1.10
2019-05-14T09:22:49.028Z,1.53
2019-05-14T09:25:19.082Z,1.10
2019-05-14T09:27:49.330Z,1.70
2019-05-14T09:30:18.618Z,1.93
2019-05-14T09:32:49.298Z,1.40
2019-05-14T09:35:18.769Z,1.47
2019-05-14T09:37:50.979Z,1.20
2019-05-14T09:40:19.831Z,1.43
2019-05-14T09:42:50.041Z,1.47
2019-05-14T09:45:18.898Z,1.30
2019-05-14T09:47:50.443Z,1.57
2019-05-14T09:50:22.246Z,1.40
2019-05-14T09:52:49.406Z,2.27
2019-05-14T09:55:18.141Z,1.87
2019-05-14T09:57:48.947Z,1.00
2019-05-14T10:00:18.622Z,1.10
2019-05-14T10:02:49.198Z,1.20
2019-05-14T10:05:18.994Z,1.10
2019-05-14T10:07:49.235Z,1.20
2019-05-14T10:10:19.579Z,1.63
2019-05-14T10:12:54.049Z,0.97
2019-05-14T10:15:16.599Z,0.93
2019-05-14T10:17:44.909Z,1.07
2019-05-14T10:20:13.246Z,1.30
2019-05-14T10:22:41.524Z,2.40
2019-05-14T10:25:09.897Z,1.10
2019-05-14T10:27:38.168Z,1.27
2019-05-14T10:30:10.402Z,1.97
2019-05-14T10:32:41.255Z,1.07
2019-05-14T10:35:08.987Z,1.27
2019-05-14T10:37:39.833Z,1.00
2019-05-14T10:40:10.116Z,1.10
2019-05-14T10:42:40.219Z,2.80
2019-05-14T10:45:12.409Z,1.00
2019-05-14T10:47:38.798Z,1.33
2019-05-14T10:50:13.332Z,1.33
2019-05-14T10:52:39.530Z,1.10
2019-05-14T10:55:08.043Z,1.53
2019-05-14T10:57:36.616Z,1.07
2019-05-14T11:00:08.843Z,1.10
2019-05-14T11:02:38.703Z,1.43
2019-05-14T11:05:07.320Z,1.00
2019-05-14T11:07:35.671Z,1.13
2019-05-14T11:10:09.189Z,1.17
2019-05-14T11:12:39.626Z,1.27
2019-05-14T11:15:07.676Z,1.00
2019-05-14T11:17:35.954Z,1.17
2019-05-14T11:20:05.467Z,1.10
2019-05-14T11:22:33.748Z,1.20
2019-05-14T11:25:02.154Z,1.80
2019-05-14T11:27:30.458Z,1.17
2019-05-14T11:29:58.811Z,2.10
2019-05-14T11:32:29.134Z,1.20
2019-05-14T11:34:59.148Z,1.10
2019-05-14T11:37:28.158Z,1.03
2019-05-14T11:39:58.114Z,1.50
2019-05-14T11:42:31.169Z,1.33
2019-05-14T11:44:58.268Z,1.10
2019-05-14T11:47:26.714Z,0.90
2019-05-14T11:49:55.004Z,0.90
2019-05-14T11:52:23.372Z,1.00
2019-05-14T11:54:51.730Z,0.97
2019-05-14T11:57:20.046Z,0.97
2019-05-14T11:59:48.599Z,1.07
2019-05-14T12:02:18.831Z,1.00
2019-05-14T12:04:47.227Z,0.80
2019-05-14T12:07:15.595Z,1.10
2019-05-14T12:09:43.954Z,1.13
2019-05-14T12:12:12.896Z,1.20
2019-05-14T12:14:41.314Z,1.47
2019-05-14T12:17:09.770Z,0.87
2019-05-14T12:19:39.381Z,1.17
2019-05-14T12:22:11.575Z,1.00
2019-05-14T12:24:38.788Z,1.00
2019-05-14T12:27:08.856Z,1.00
2019-05-14T12:29:39.729Z,1.10
2019-05-14T12:32:12.756Z,0.90
2019-05-14T12:34:38.707Z,0.90
2019-05-14T12:37:09.087Z,1.80
2019-05-14T12:39:37.395Z,1.13
2019-05-14T12:42:05.667Z,1.33
2019-05-14T12:44:37.186Z,0.87
2019-05-14T12:47:03.951Z,0.93
2019-05-14T12:49:32.237Z,1.33
2019-05-14T12:52:16.434Z,1.40
2019-05-14T12:54:30.522Z,0.80
2019-05-14T12:56:58.821Z,0.93
2019-05-14T12:59:28.458Z,1.00
2019-05-14T13:01:58.672Z,1.00
2019-05-14T13:04:28.524Z,1.00
2019-05-14T13:06:59.680Z,1.10
2019-05-14T13:09:26.959Z,0.90
2019-05-14T13:11:55.245Z,0.90
2019-05-14T13:14:23.522Z,1.00
2019-05-14T13:16:54.573Z,0.87
2019-05-14T13:19:21.820Z,1.10
2019-05-14T13:22:07.051Z,0.80
2019-05-14T13:24:20.155Z,1.10
2019-05-14T13:26:49.711Z,0.93
2019-05-14T13:29:19.332Z,1.10
2019-05-14T13:31:49.709Z,1.23
2019-05-14T13:34:19.543Z,0.83
2019-05-14T13:36:48.848Z,1.07
2019-05-14T13:39:19.365Z,1.27
2019-05-14T13:41:48.624Z,1.07
2019-05-14T13:44:24.589Z,1.17
2019-05-14T13:46:48.629Z,0.83
2019-05-14T13:49:19.043Z,1.30
2019-05-14T13:51:49.017Z,1.10
2019-05-14T13:54:19.321Z,1.17
2019-05-14T13:56:48.373Z,1.40
2019-05-14T13:59:18.724Z,1.43
2019-05-14T14:01:48.637Z,1.10
2019-05-14T14:04:18.313Z,1.33
2019-05-14T14:06:48.933Z,1.00
2019-05-14T14:09:16.955Z,0.90
2019-05-14T14:11:45.234Z,0.80
2019-05-14T14:14:13.523Z,1.20
2019-05-14T14:16:41.872Z,0.97
2019-05-14T14:19:10.264Z,1.07
2019-05-14T14:21:39.721Z,1.00
2019-05-14T14:24:09.624Z,0.90
2019-05-14T14:26:39.349Z,0.80
2019-05-14T14:29:09.259Z,0.80
2019-05-14T14:31:41.422Z,0.83
2019-05-14T14:34:09.140Z,1.20
2019-05-14T14:36:38.613Z,0.80
2019-05-14T14:39:09.728Z,0.80
2019-05-14T14:41:38.413Z,1.00
2019-05-14T14:44:08.767Z,1.43
2019-05-14T14:46:39.022Z,1.07
2019-05-14T14:49:10.433Z,1.10
2019-05-14T14:51:43.958Z,1.10
2019-05-14T14:54:11.945Z,1.00
2019-05-14T14:56:37.931Z,1.13
2019-05-14T14:59:09.358Z,0.80
2019-05-14T15:01:39.897Z,1.13
2019-05-14T15:04:12.854Z,0.90
2019-05-14T15:06:39.756Z,1.93
2019-05-14T15:09:09.441Z,1.10
2019-05-14T15:11:39.417Z,1.20
2019-05-14T15:14:08.438Z,0.97
2019-05-14T15:16:39.195Z,1.10
2019-05-14T15:19:09.227Z,1.03
2019-05-14T15:21:36.635Z,1.60
2019-05-14T15:24:11.987Z,1.57
2019-05-14T15:26:34.943Z,0.80
2019-05-14T15:29:03.303Z,0.80
2019-05-14T15:31:31.647Z,0.80
2019-05-14T15:33:59.946Z,0.87
2019-05-14T15:36:28.228Z,0.90
2019-05-14T15:38:58.938Z,1.03
2019-05-14T15:41:29.438Z,1.20
2019-05-14T15:43:58.699Z,1.33
2019-05-14T15:46:26.598Z,1.03
2019-05-14T15:48:54.868Z,1.20
2019-05-14T15:51:23.157Z,1.10
2019-05-14T15:54:09.144Z,1.27
2019-05-14T15:56:21.445Z,1.63
2019-05-14T15:58:49.716Z,0.93
2019-05-14T16:01:19.296Z,1.13
2019-05-14T16:03:48.313Z,1.07
2019-05-14T16:06:19.112Z,1.10
2019-05-14T16:08:48.801Z,1.20
2019-05-14T16:11:18.672Z,1.30
2019-05-14T16:13:49.100Z,1.07
2019-05-14T16:16:19.154Z,1.20
2019-05-14T16:18:48.045Z,2.40
2019-05-14T16:21:18.311Z,2.00
2019-05-14T16:23:46.495Z,1.30
2019-05-14T16:26:14.843Z,1.97
2019-05-14T16:28:43.237Z,1.73
2019-05-14T16:31:11.601Z,1.90
2019-05-14T16:33:40.727Z,1.63
2019-05-14T16:36:09.219Z,3.40
2019-05-14T16:38:39.498Z,5.67
2019-05-14T16:41:07.591Z,8.17
2019-05-14T16:43:35.960Z,12.60
2019-05-14T16:46:04.321Z,14.13
2019-05-14T16:48:32.681Z,17.10
2019-05-14T16:51:00.967Z,17.03
2019-05-14T16:53:29.375Z,14.10
2019-05-14T16:55:57.735Z,19.43
2019-05-14T16:58:29.029Z,19.30
2019-05-14T17:00:58.700Z,17.50
2019-05-14T17:03:26.160Z,19.47
2019-05-14T17:05:54.559Z,13.40
2019-05-14T17:08:22.839Z,13.00
2019-05-14T17:10:51.214Z,19.63
2019-05-14T17:13:19.495Z,12.13
2019-05-14T17:15:48.158Z,16.70
2019-05-14T17:18:19.123Z,11.57
2019-05-14T17:20:48.841Z,11.90
2019-05-14T17:23:19.113Z,12.03
2019-05-14T17:25:48.562Z,8.13
2019-05-14T17:28:16.764Z,9.07
2019-05-14T17:30:45.130Z,9.10
2019-05-14T17:33:13.406Z,7.50
2019-05-14T17:35:41.699Z,7.57
2019-05-14T17:38:10.052Z,6.90
2019-05-14T17:40:39.638Z,5.17
2019-05-14T17:43:08.724Z,5.23
2019-05-14T17:45:39.058Z,4.70
2019-05-14T17:48:07.197Z,3.63
2019-05-14T17:50:38.208Z,4.37
2019-05-14T17:53:05.549Z,4.43
2019-05-14T17:55:46.412Z,4.77
2019-05-14T17:58:03.991Z,3.70
2019-05-14T18:00:32.341Z,4.17
2019-05-14T18:03:00.709Z,3.90
2019-05-14T18:05:29.217Z,3.63
2019-05-14T18:07:59.320Z,3.20
2019-05-14T18:10:28.485Z,2.40
2019-05-14T18:12:59.845Z,2.47
2019-05-14T18:15:29.209Z,2.80
2019-05-14T18:17:58.895Z,2.73
2019-05-14T18:20:28.607Z,3.20
2019-05-14T18:22:58.348Z,2.50
2019-05-14T18:25:29.106Z,1.70
2019-05-14T18:27:56.972Z,3.00
2019-05-14T18:30:25.280Z,2.33
2019-05-14T18:32:53.572Z,1.50
2019-05-14T18:35:21.892Z,2.13
2019-05-14T18:37:50.783Z,1.63
2019-05-14T18:40:19.128Z,1.73
2019-05-14T18:42:48.024Z,2.03
2019-05-14T18:45:18.805Z,2.47
2019-05-14T18:47:48.484Z,2.47
2019-05-14T18:50:19.364Z,1.67
2019-05-14T18:52:48.490Z,2.50
2019-05-14T18:55:18.655Z,2.03
2019-05-14T18:57:48.671Z,1.67
2019-05-14T19:00:18.599Z,1.40
2019-05-14T19:02:48.215Z,1.77
2019-05-14T19:05:18.316Z,1.70
2019-05-14T19:07:48.748Z,2.43
2019-05-14T19:10:18.547Z,2.63
2019-05-14T19:12:47.852Z,1.33
2019-05-14T19:15:18.554Z,2.40
2019-05-14T19:17:48.817Z,1.70
2019-05-14T19:20:19.051Z,4.57
2019-05-14T19:22:48.915Z,1.83
2019-05-14T19:25:18.572Z,1.60
2019-05-14T19:27:48.737Z,1.83
2019-05-14T19:30:19.118Z,2.83
2019-05-14T19:32:48.528Z,2.50
2019-05-14T19:35:18.944Z,1.87
2019-05-14T19:37:48.676Z,1.60
2019-05-14T19:40:18.945Z,2.47
2019-05-14T19:42:48.512Z,2.53
2019-05-14T19:45:17.056Z,1.53
2019-05-14T19:47:45.406Z,2.20
2019-05-14T19:50:13.770Z,2.80
2019-05-14T19:52:42.045Z,2.30
2019-05-14T19:55:10.397Z,2.47
2019-05-14T19:57:38.754Z,1.97
2019-05-14T20:00:09.118Z,2.37
2019-05-14T20:02:37.649Z,1.60
2019-05-14T20:05:09.011Z,3.30
2019-05-14T20:07:38.681Z,2.00
2019-05-14T20:10:08.620Z,2.13
2019-05-14T20:12:38.890Z,1.93
2019-05-14T20:15:09.286Z,3.13
2019-05-14T20:17:38.204Z,2.03
2019-05-14T20:20:08.823Z,2.07
2019-05-14T20:22:39.454Z,5.37
2019-05-14T20:25:07.802Z,3.00
2019-05-14T20:27:38.395Z,2.33
2019-05-14T20:30:09.408Z,2.27
2019-05-14T20:32:37.780Z,1.80
2019-05-14T20:35:09.139Z,2.00
2019-05-14T20:37:38.787Z,2.07
2019-05-14T20:40:07.622Z,2.90
2019-05-14T20:42:38.696Z,1.53
2019-05-14T20:45:06.449Z,1.53
2019-05-14T20:47:34.846Z,1.23
2019-05-14T20:50:03.569Z,2.03
2019-05-14T20:52:31.842Z,2.20
2019-05-14T20:55:00.131Z,1.97
2019-05-14T20:57:33.205Z,3.63
2019-05-14T20:59:58.883Z,1.73
2019-05-14T21:02:29.475Z,2.10
2019-05-14T21:05:03.767Z,2.60
2019-05-14T21:07:28.869Z,3.83
2019-05-14T21:09:57.516Z,1.87
2019-05-14T21:12:28.615Z,2.70
2019-05-14T21:14:56.011Z,1.67
2019-05-14T21:17:24.407Z,2.07
2019-05-14T21:19:52.833Z,2.63
2019-05-14T21:22:21.247Z,1.60
2019-05-14T21:24:53.003Z,3.50
2019-05-14T21:27:19.706Z,1.80
2019-05-14T21:29:48.910Z,2.03
2019-05-14T21:32:19.483Z,1.90
2019-05-14T21:34:49.158Z,1.33
2019-05-14T21:37:18.810Z,2.57
2019-05-14T21:39:49.099Z,1.70
2019-05-14T21:42:19.485Z,1.63
2019-05-14T21:44:48.414Z,3.07
2019-05-14T21:47:17.603Z,1.77
2019-05-14T21:49:48.288Z,1.53
2019-05-14T21:52:17.931Z,1.77
2019-05-14T21:54:48.044Z,2.83
2019-05-14T21:57:18.857Z,2.20
2019-05-14T21:59:48.017Z,2.17
2019-05-14T22:02:24.845Z,1.63
2019-05-14T22:04:49.051Z,1.53
2019-05-14T22:07:18.497Z,1.67
2019-05-14T22:09:48.768Z,1.57
2019-05-14T22:12:20.506Z,1.27
2019-05-14T22:14:48.193Z,1.43
2019-05-14T22:17:16.739Z,1.60
2019-05-14T22:19:45.123Z,2.00
2019-05-14T22:22:13.543Z,1.80
2019-05-14T22:24:41.945Z,1.30
2019-05-14T22:27:10.361Z,1.20
2019-05-14T22:29:38.770Z,1.70
2019-05-14T22:32:08.224Z,1.30
2019-05-14T22:34:38.449Z,1.47
2019-05-14T22:37:07.932Z,1.90
2019-05-14T22:39:38.878Z,1.50
2019-05-14T22:42:09.024Z,1.53
2019-05-14T22:44:36.526Z,2.40
2019-05-14T22:47:04.939Z,2.50
2019-05-14T22:49:33.346Z,3.10
2019-05-14T22:52:01.785Z,2.43
2019-05-14T22:54:30.246Z,2.53
2019-05-14T22:56:59.062Z,3.23
2019-05-14T22:59:28.381Z,1.67
2019-05-14T23:01:58.865Z,2.40
2019-05-14T23:04:28.939Z,1.37
2019-05-14T23:06:58.675Z,2.67
2019-05-14T23:09:27.186Z,1.57
2019-05-14T23:11:55.600Z,1.30
2019-05-14T23:14:24.017Z,1.23
2019-05-14T23:16:52.410Z,1.50
2019-05-14T23:19:20.900Z,2.03
2019-05-14T23:21:49.294Z,1.77
2019-05-14T23:24:18.950Z,2.03
2019-05-14T23:26:49.237Z,2.27
2019-05-14T23:29:17.576Z,1.40
2019-05-14T23:31:45.970Z,2.10
2019-05-14T23:34:14.372Z,1.37
2019-05-14T23:36:42.776Z,1.70
2019-05-14T23:39:11.203Z,1.83
2019-05-14T23:41:39.596Z,2.03
2019-05-14T23:44:08.492Z,3.53
2019-05-14T23:46:37.049Z,1.63
2019-05-14T23:49:05.477Z,2.67
2019-05-14T23:51:33.878Z,1.50
2019-05-14T23:54:02.302Z,1.33
2019-05-14T23:56:30.701Z,2.47
2019-05-14T23:59:01.945Z,1.50
